Time;durP1;ratioP1;P1;durP2;ratioP2;P2;SDS_P1;SDS_P2;PMS_P1;PMS_P2;Temp;Humidity;BMP_temperature;BMP_pressure;BME280_temperature;BME280_humidity;BME280_pressure;Samples;Min_cycle;Max_cycle;Signal;HPM_P1;HPM_P2
2024/01/04 00:00:16;;;;;;;23.43;12.70;;;;;;;;;;5034219;28;20796;-71
2024/01/04 00:02:43;;;;;;;24.33;13.17;;;;;;;;;;5016665;28;20480;-71
2024/01/04 00:05:10;;;;;;;25.90;14.47;;;;;;;;;;5032471;28;20468;-71
2024/01/04 00:07:37;;;;;;;23.60;13.30;;;;;;;;;;5031913;28;20476;-71
2024/01/04 00:10:04;;;;;;;27.50;13.47;;;;;;;;;;5033258;28;20543;-71
2024/01/04 00:12:32;;;;;;;23.43;12.80;;;;;;;;;;5000245;28;20933;-71
2024/01/04 00:14:59;;;;;;;23.87;12.77;;;;;;;;;;5033876;28;20434;-71
2024/01/04 00:17:26;;;;;;;24.53;13.33;;;;;;;;;;5033807;28;20877;-71
2024/01/04 00:19:52;;;;;;;22.97;13.00;;;;;;;;;;5016454;28;20484;-71
2024/01/04 00:22:19;;;;;;;24.73;13.50;;;;;;;;;;5015759;28;20437;-71
2024/01/04 00:24:46;;;;;;;20.80;11.27;;;;;;;;;;5015793;28;20785;-71
2024/01/04 00:27:12;;;;;;;26.17;12.97;;;;;;;;;;5033437;28;20437;-71
2024/01/04 00:29:39;;;;;;;26.77;13.20;;;;;;;;;;5015721;28;20454;-71
2024/01/04 00:32:06;;;;;;;24.40;12.77;;;;;;;;;;5047591;28;20804;-71
2024/01/04 00:34:33;;;;;;;29.17;13.43;;;;;;;;;;5052112;28;20429;-71
2024/01/04 00:37:00;;;;;;;28.37;14.00;;;;;;;;;;5052999;28;20512;-71
2024/01/04 00:39:27;;;;;;;28.67;14.03;;;;;;;;;;5035359;28;20437;-71
2024/01/04 00:41:55;;;;;;;23.47;12.07;;;;;;;;;;5052164;28;20413;-71
2024/01/04 00:44:23;;;;;;;23.10;13.13;;;;;;;;;;5036106;28;20808;-71
2024/01/04 00:46:53;;;;;;;21.23;11.50;;;;;;;;;;5022690;28;20471;-71
2024/01/04 00:49:20;;;;;;;22.63;11.90;;;;;;;;;;5057386;28;20457;-71
2024/01/04 00:51:46;;;;;;;24.63;12.93;;;;;;;;;;5039088;28;20475;-71
2024/01/04 00:54:13;;;;;;;23.37;12.13;;;;;;;;;;5039047;28;20448;-71
2024/01/04 00:57:00;;;;;;;26.33;13.30;;;;;;;;;;5055538;28;20412;-71
2024/01/04 00:59:27;;;;;;;24.90;13.23;;;;;;;;;;5056979;28;20433;-71
2024/01/04 01:01:54;;;;;;;26.33;13.27;;;;;;;;;;5039214;28;20864;-71
2024/01/04 01:04:21;;;;;;;26.77;13.37;;;;;;;;;;5055685;28;20516;-71
2024/01/04 01:06:48;;;;;;;23.40;12.27;;;;;;;;;;5038678;28;20425;-71
2024/01/04 01:09:15;;;;;;;24.90;13.03;;;;;;;;;;5054918;28;20417;-72
2024/01/04 01:11:42;;;;;;;24.53;13.30;;;;;;;;;;5039005;28;20429;-71
2024/01/04 01:50:04;;;;;;;18.57;10.27;;;;;;;;;;5055404;28;20946;-71
2024/01/04 01:52:31;;;;;;;19.77;10.70;;;;;;;;;;5054383;28;20536;-72
2024/01/04 01:54:58;;;;;;;18.00;10.50;;;;;;;;;;5038212;28;20425;-71
2024/01/04 01:57:27;;;;;;;18.73;9.43;;;;;;;;;;5021071;28;20527;-71
2024/01/04 01:59:54;;;;;;;17.17;9.40;;;;;;;;;;5038124;28;20823;-72
2024/01/04 02:02:20;;;;;;;15.77;8.93;;;;;;;;;;5021308;28;20921;-71
2024/01/04 02:04:47;;;;;;;16.20;8.73;;;;;;;;;;5054853;28;20421;-72
2024/01/04 02:07:13;;;;;;;18.40;9.77;;;;;;;;;;5037553;28;20505;-72
2024/01/04 02:09:40;;;;;;;15.70;8.80;;;;;;;;;;5054660;28;21018;-72
2024/01/04 02:12:13;;;;;;;13.07;8.20;;;;;;;;;;5056135;28;20532;-72
2024/01/04 02:14:40;;;;;;;13.37;8.00;;;;;;;;;;5038275;28;20421;-72
2024/01/04 02:17:06;;;;;;;11.63;7.67;;;;;;;;;;5055210;28;20418;-72
2024/01/04 02:19:33;;;;;;;12.20;7.37;;;;;;;;;;5037346;28;20433;-72
2024/01/04 02:22:00;;;;;;;16.77;8.93;;;;;;;;;;5021461;28;20464;-72
2024/01/04 02:24:27;;;;;;;16.60;9.30;;;;;;;;;;5054222;28;20433;-72
2024/01/04 02:26:53;;;;;;;17.07;8.80;;;;;;;;;;5037485;28;20536;-72
2024/01/04 02:29:20;;;;;;;15.27;9.00;;;;;;;;;;5053846;28;20448;-72
2024/01/04 02:31:47;;;;;;;19.30;10.23;;;;;;;;;;5037238;28;20473;-72
2024/01/04 02:34:14;;;;;;;14.70;9.40;;;;;;;;;;5054653;28;20460;-72
2024/01/04 02:36:40;;;;;;;14.57;8.53;;;;;;;;;;5053934;28;20421;-72
2024/01/04 02:39:25;;;;;;;12.50;7.67;;;;;;;;;;5054812;28;20386;-72
2024/01/04 02:41:51;;;;;;;16.17;7.63;;;;;;;;;;5053501;28;20532;-72
2024/01/04 02:44:18;;;;;;;12.43;7.83;;;;;;;;;;5053424;28;20437;-72
2024/01/04 02:46:45;;;;;;;13.57;8.27;;;;;;;;;;5036661;28;20498;-72
2024/01/04 02:49:11;;;;;;;14.87;8.20;;;;;;;;;;5054925;28;20752;-72
2024/01/04 02:51:38;;;;;;;14.23;7.90;;;;;;;;;;5036705;28;20491;-72
2024/01/04 02:54:07;;;;;;;13.37;7.87;;;;;;;;;;5053242;28;20437;-72
2024/01/04 02:56:33;;;;;;;12.57;7.90;;;;;;;;;;5036851;28;20417;-72
2024/01/04 02:59:01;;;;;;;15.10;8.27;;;;;;;;;;5053439;28;20923;-72
2024/01/04 03:01:27;;;;;;;13.20;7.30;;;;;;;;;;5053075;28;20446;-72
2024/01/04 03:03:57;;;;;;;12.10;7.73;;;;;;;;;;5053167;28;20452;-72
2024/01/04 03:06:24;;;;;;;11.73;6.97;;;;;;;;;;5052853;28;20510;-72
2024/01/04 03:08:51;;;;;;;15.40;8.83;;;;;;;;;;5036493;28;20484;-72
2024/01/04 03:11:18;;;;;;;14.87;8.10;;;;;;;;;;5054353;28;20469;-72
2024/01/04 03:13:46;;;;;;;13.17;7.20;;;;;;;;;;5054319;28;20437;-72
2024/01/04 03:16:18;;;;;;;12.83;7.27;;;;;;;;;;5053211;28;20421;-72
2024/01/04 03:18:44;;;;;;;11.87;6.93;;;;;;;;;;5054226;28;20402;-72
2024/01/04 03:21:11;;;;;;;12.10;7.17;;;;;;;;;;5053923;28;20471;-73
2024/01/04 03:23:38;;;;;;;11.70;8.00;;;;;;;;;;5054001;28;20417;-73
2024/01/04 03:26:22;;;;;;;13.97;7.57;;;;;;;;;;5039147;28;20444;-73
2024/01/04 03:28:48;;;;;;;16.30;8.50;;;;;;;;;;5052481;28;20475;-73
2024/01/04 03:31:33;;;;;;;13.03;7.70;;;;;;;;;;5053114;28;20527;-73
2024/01/04 03:33:59;;;;;;;11.60;7.93;;;;;;;;;;5052755;28;20765;-80
2024/01/04 03:36:26;;;;;;;14.67;9.17;;;;;;;;;;5052956;28;20757;-79
2024/01/04 03:38:53;;;;;;;15.50;8.50;;;;;;;;;;5053160;28;20440;-80
2024/01/04 03:41:21;;;;;;;13.87;8.97;;;;;;;;;;5053566;28;20437;-76
2024/01/04 03:43:47;;;;;;;13.30;8.27;;;;;;;;;;5052310;28;20418;-77
2024/01/04 03:46:14;;;;;;;15.27;9.00;;;;;;;;;;5053990;28;20429;-77
2024/01/04 03:48:43;;;;;;;15.67;8.93;;;;;;;;;;5053409;28;20482;-76
2024/01/04 03:51:11;;;;;;;15.03;8.87;;;;;;;;;;5052544;28;20524;-76
2024/01/04 03:53:38;;;;;;;14.80;8.50;;;;;;;;;;5053429;28;20767;-77
2024/01/04 03:56:04;;;;;;;14.13;8.50;;;;;;;;;;5052816;28;20499;-73
2024/01/04 03:58:32;;;;;;;17.53;9.13;;;;;;;;;;5053511;28;20424;-73
2024/01/04 04:01:00;;;;;;;19.10;9.77;;;;;;;;;;5052732;28;20753;-74
2024/01/04 04:03:27;;;;;;;16.60;9.50;;;;;;;;;;5052767;28;20920;-79
2024/01/04 04:05:54;;;;;;;22.30;11.30;;;;;;;;;;5054378;28;20437;-76
2024/01/04 04:08:21;;;;;;;18.77;10.23;;;;;;;;;;5054157;28;20452;-76
2024/01/04 04:10:47;;;;;;;16.67;9.97;;;;;;;;;;5052121;28;20835;-74
2024/01/04 04:13:14;;;;;;;19.60;11.03;;;;;;;;;;5051960;28;20432;-71
2024/01/04 04:15:41;;;;;;;19.37;10.33;;;;;;;;;;5035731;28;20433;-75
2024/01/04 04:18:07;;;;;;;19.57;9.40;;;;;;;;;;5019561;28;20441;-78
2024/01/04 04:20:34;;;;;;;14.17;8.43;;;;;;;;;;5054742;28;20460;-71
2024/01/04 04:23:01;;;;;;;14.90;8.63;;;;;;;;;;5057386;28;20417;-83
2024/01/04 04:25:27;;;;;;;20.90;10.63;;;;;;;;;;5057043;28;20456;-74
2024/01/04 04:27:54;;;;;;;18.10;8.97;;;;;;;;;;5057365;28;20413;-79
2024/01/04 04:30:21;;;;;;;15.43;8.57;;;;;;;;;;5039220;28;20464;-73
2024/01/04 04:32:48;;;;;;;13.33;7.80;;;;;;;;;;5056917;28;20424;-76
2024/01/04 04:35:15;;;;;;;15.77;8.00;;;;;;;;;;5056154;28;20435;-72
2024/01/04 04:37:41;;;;;;;14.00;8.23;;;;;;;;;;5057089;28;20413;-73
2024/01/04 04:40:08;;;;;;;15.33;8.60;;;;;;;;;;5056308;28;20825;-79
2024/01/04 04:42:39;;;;;;;14.70;8.27;;;;;;;;;;5055698;28;20410;-77
2024/01/04 04:45:06;;;;;;;14.07;8.10;;;;;;;;;;5056791;28;20465;-77
2024/01/04 04:47:35;;;;;;;14.50;8.33;;;;;;;;;;5055970;28;20429;-70
2024/01/04 04:50:03;;;;;;;15.27;7.90;;;;;;;;;;5056515;28;20432;-76
2024/01/04 04:52:30;;;;;;;13.73;7.57;;;;;;;;;;5056660;28;20413;-75
2024/01/04 04:54:56;;;;;;;34.63;13.83;;;;;;;;;;5057068;28;20431;-77
2024/01/04 04:57:41;;;;;;;23.50;10.63;;;;;;;;;;5055546;28;20408;-79
2024/01/04 05:00:07;;;;;;;19.77;9.73;;;;;;;;;;5039284;28;20413;-75
2024/01/04 05:02:34;;;;;;;17.33;8.57;;;;;;;;;;5056881;28;20515;-73
2024/01/04 05:05:01;;;;;;;19.80;9.57;;;;;;;;;;5056615;28;20409;-72
2024/01/04 05:07:27;;;;;;;33.13;15.07;;;;;;;;;;5056709;28;20460;-76
2024/01/04 05:10:12;;;;;;;34.17;17.93;;;;;;;;;;5041779;28;20389;-77
2024/01/04 05:12:38;;;;;;;22.37;9.27;;;;;;;;;;5056791;28;20429;-77
2024/01/04 05:15:06;;;;;;;12.03;6.43;;;;;;;;;;5055430;28;20429;-76
2024/01/04 05:17:33;;;;;;;19.77;9.17;;;;;;;;;;5056078;28;20425;-78
2024/01/04 05:20:00;;;;;;;19.43;8.83;;;;;;;;;;5055773;28;20474;-77
2024/01/04 05:22:26;;;;;;;35.03;17.23;;;;;;;;;;5055321;28;20425;-78
2024/01/04 05:24:53;;;;;;;11.67;6.83;;;;;;;;;;5038553;28;20441;-77
2024/01/04 05:27:20;;;;;;;10.80;5.63;;;;;;;;;;5055853;28;20440;-75
2024/01/04 05:29:47;;;;;;;9.77;5.77;;;;;;;;;;5022971;28;20429;-74
2024/01/04 05:32:13;;;;;;;13.47;6.70;;;;;;;;;;5055157;28;20468;-69
2024/01/04 05:34:42;;;;;;;9.50;6.17;;;;;;;;;;5055559;28;20936;-69
2024/01/04 05:37:08;;;;;;;14.97;9.47;;;;;;;;;;5037929;28;20422;-69
2024/01/04 05:39:35;;;;;;;31.13;26.07;;;;;;;;;;5055800;28;20421;-69
2024/01/04 05:42:02;;;;;;;18.13;11.33;;;;;;;;;;5054631;28;20438;-69
2024/01/04 05:44:32;;;;;;;21.40;13.43;;;;;;;;;;5054596;28;20792;-69
2024/01/04 05:46:59;;;;;;;13.70;7.57;;;;;;;;;;5038194;28;20429;-69
2024/01/04 05:49:25;;;;;;;13.07;6.67;;;;;;;;;;5027246;28;20460;-70
2024/01/04 05:51:52;;;;;;;10.83;6.07;;;;;;;;;;5028506;28;20481;-70
2024/01/04 05:54:19;;;;;;;10.30;6.43;;;;;;;;;;5046445;28;20421;-69
2024/01/04 05:56:46;;;;;;;12.00;6.90;;;;;;;;;;5012238;28;20428;-77
2024/01/04 05:59:12;;;;;;;12.40;7.27;;;;;;;;;;5044973;28;20418;-76
2024/01/04 06:01:39;;;;;;;10.77;6.53;;;;;;;;;;5028531;28;20516;-74
2024/01/04 06:04:06;;;;;;;14.83;8.17;;;;;;;;;;5045302;28;21562;-75
2024/01/04 06:06:33;;;;;;;17.70;8.30;;;;;;;;;;5011868;28;20433;-74
2024/01/04 06:08:59;;;;;;;10.33;6.13;;;;;;;;;;5046080;28;20809;-74
2024/01/04 06:11:26;;;;;;;19.37;8.37;;;;;;;;;;5028387;28;20479;-75
2024/01/04 06:13:54;;;;;;;12.93;7.17;;;;;;;;;;5044605;28;20429;-75
2024/01/04 06:16:21;;;;;;;15.03;7.30;;;;;;;;;;5028104;28;20433;-75
2024/01/04 06:18:47;;;;;;;12.80;7.03;;;;;;;;;;5045918;28;20868;-76
2024/01/04 06:21:15;;;;;;;12.67;7.40;;;;;;;;;;5046022;28;20421;-75
2024/01/04 06:23:42;;;;;;;13.87;7.03;;;;;;;;;;5044325;28;20433;-75
2024/01/04 06:26:09;;;;;;;12.10;5.27;;;;;;;;;;5044327;28;20492;-76
2024/01/04 06:28:37;;;;;;;17.47;8.10;;;;;;;;;;5045790;28;20495;-71
2024/01/04 06:31:04;;;;;;;14.03;7.53;;;;;;;;;;5044455;28;20847;-75
2024/01/04 06:33:31;;;;;;;11.60;6.20;;;;;;;;;;5028017;28;20815;-76
2024/01/04 06:35:58;;;;;;;14.90;8.07;;;;;;;;;;5028263;28;20430;-78
2024/01/04 06:38:25;;;;;;;16.63;8.37;;;;;;;;;;5045744;28;20440;-77
2024/01/04 06:40:52;;;;;;;13.33;6.57;;;;;;;;;;5045472;28;20436;-70
2024/01/04 06:43:19;;;;;;;17.67;8.90;;;;;;;;;;5043918;28;20487;-70
2024/01/04 06:45:46;;;;;;;9.37;5.77;;;;;;;;;;5043941;28;20942;-71
2024/01/04 06:48:13;;;;;;;8.50;5.37;;;;;;;;;;5021236;28;20433;-70
2024/01/04 06:50:39;;;;;;;13.43;6.93;;;;;;;;;;5042997;28;22062;-70
2024/01/04 06:53:07;;;;;;;10.40;6.00;;;;;;;;;;5045398;28;20523;-71
2024/01/04 06:55:33;;;;;;;7.57;4.50;;;;;;;;;;5027496;28;20417;-71
2024/01/04 06:58:00;;;;;;;12.13;5.67;;;;;;;;;;5045301;28;20924;-71
2024/01/04 07:00:26;;;;;;;8.97;5.57;;;;;;;;;;5045212;28;20909;-70
2024/01/04 07:02:53;;;;;;;10.70;6.10;;;;;;;;;;5045452;28;20916;-70
2024/01/04 07:05:20;;;;;;;10.40;5.20;;;;;;;;;;5043960;28;20917;-71
2024/01/04 07:07:47;;;;;;;8.97;4.97;;;;;;;;;;5028087;28;20460;-73
2024/01/04 07:10:14;;;;;;;7.47;4.80;;;;;;;;;;5023342;28;20574;-76
2024/01/04 07:12:58;;;;;;;9.23;4.97;;;;;;;;;;5025053;28;20828;-79
2024/01/04 07:15:25;;;;;;;15.13;7.83;;;;;;;;;;4992104;28;20512;-78
2024/01/04 07:17:52;;;;;;;12.23;5.90;;;;;;;;;;5007639;28;20474;-75
2024/01/04 07:20:19;;;;;;;9.73;5.40;;;;;;;;;;5024855;28;20422;-79
2024/01/04 07:22:52;;;;;;;10.40;5.80;;;;;;;;;;5008749;28;20493;-80
2024/01/04 07:25:19;;;;;;;10.03;5.30;;;;;;;;;;5007526;28;20432;-77
2024/01/04 07:27:46;;;;;;;8.27;5.70;;;;;;;;;;5007585;28;20960;-80
2024/01/04 07:30:16;;;;;;;11.00;6.97;;;;;;;;;;5007905;28;20520;-83
2024/01/04 07:32:43;;;;;;;13.33;8.17;;;;;;;;;;5023810;28;20470;-84
2024/01/04 07:35:12;;;;;;;9.27;6.30;;;;;;;;;;5007709;28;20782;-78
2024/01/04 07:37:43;;;;;;;7.57;4.87;;;;;;;;;;5007958;28;20426;-79
2024/01/04 07:40:10;;;;;;;8.83;5.33;;;;;;;;;;5007557;28;20410;-79
2024/01/04 07:42:37;;;;;;;8.57;5.40;;;;;;;;;;5021960;28;20488;-78
2024/01/04 07:45:05;;;;;;;8.60;5.47;;;;;;;;;;5018881;28;20430;-78
2024/01/04 07:47:36;;;;;;;9.17;6.10;;;;;;;;;;5006496;28;20476;-74
2024/01/04 07:50:04;;;;;;;9.93;6.33;;;;;;;;;;4996286;28;20473;-78
2024/01/04 07:52:31;;;;;;;9.03;5.73;;;;;;;;;;5023332;28;20496;-78
2024/01/04 07:54:58;;;;;;;8.77;5.93;;;;;;;;;;5022908;28;20442;-75
2024/01/04 07:57:27;;;;;;;7.60;5.57;;;;;;;;;;5007615;28;20491;-76
2024/01/04 07:59:54;;;;;;;8.57;4.90;;;;;;;;;;5007184;28;20436;-77
2024/01/04 08:06:14;;;;;;;8.40;5.47;;;;;;;;;;5024897;28;20508;-76
2024/01/04 08:08:58;;;;;;;9.57;5.03;;;;;;;;;;5009432;28;20511;-77
2024/01/04 08:11:25;;;;;;;9.43;5.90;;;;;;;;;;5007838;28;20458;-74
2024/01/04 08:13:52;;;;;;;8.57;5.33;;;;;;;;;;5007405;28;20448;-74
2024/01/04 08:16:19;;;;;;;9.13;5.43;;;;;;;;;;5007299;28;20987;-75
2024/01/04 08:18:46;;;;;;;8.33;5.67;;;;;;;;;;5023181;28;20426;-77
2024/01/04 08:21:13;;;;;;;9.70;5.80;;;;;;;;;;5023425;28;20441;-75
2024/01/04 08:23:43;;;;;;;9.60;5.83;;;;;;;;;;5007157;28;20426;-75
2024/01/04 08:26:10;;;;;;;8.40;5.30;;;;;;;;;;5023124;28;20968;-76
2024/01/04 08:28:54;;;;;;;11.67;6.27;;;;;;;;;;4995674;28;20465;-77
2024/01/04 08:31:21;;;;;;;10.80;6.53;;;;;;;;;;5007074;28;20470;-74
2024/01/04 08:33:48;;;;;;;9.80;6.87;;;;;;;;;;5007307;28;20529;-78
2024/01/04 08:36:15;;;;;;;11.33;6.87;;;;;;;;;;5023324;28;20991;-78
2024/01/04 08:38:42;;;;;;;11.87;7.13;;;;;;;;;;5023372;28;21021;-77
2024/01/04 08:41:08;;;;;;;10.30;5.87;;;;;;;;;;5007008;28;21164;-79
2024/01/04 08:43:35;;;;;;;9.63;6.40;;;;;;;;;;5023037;28;20460;-78
2024/01/04 08:46:01;;;;;;;12.07;6.13;;;;;;;;;;5023262;28;20554;-78
2024/01/04 08:48:29;;;;;;;11.07;6.93;;;;;;;;;;4995982;28;20415;-79
2024/01/04 08:50:56;;;;;;;10.80;6.00;;;;;;;;;;5006960;28;20944;-78
2024/01/04 08:53:23;;;;;;;10.70;6.27;;;;;;;;;;5007338;28;20766;-74
2024/01/04 08:55:50;;;;;;;17.43;11.00;;;;;;;;;;5007945;28;20549;-77
2024/01/04 08:58:17;;;;;;;12.63;7.87;;;;;;;;;;5007531;28;20435;-79
2024/01/04 09:00:44;;;;;;;12.70;7.33;;;;;;;;;;5007600;28;20429;-79
2024/01/04 09:03:11;;;;;;;12.17;6.67;;;;;;;;;;5008036;28;20445;-77
2024/01/04 09:05:37;;;;;;;11.73;6.30;;;;;;;;;;5025477;28;22253;-76
2024/01/04 09:08:05;;;;;;;13.13;7.10;;;;;;;;;;5026387;28;20853;-77
2024/01/04 09:10:32;;;;;;;11.10;6.30;;;;;;;;;;5027926;28;20418;-76
2024/01/04 09:12:59;;;;;;;12.07;6.50;;;;;;;;;;5010805;28;20481;-84
2024/01/04 09:15:27;;;;;;;10.90;6.60;;;;;;;;;;5028092;28;20533;-78
2024/01/04 09:17:55;;;;;;;11.57;6.43;;;;;;;;;;5010750;28;20466;-78
2024/01/04 09:20:23;;;;;;;11.80;7.33;;;;;;;;;;5010757;28;20940;-82
2024/01/04 09:22:50;;;;;;;11.37;7.10;;;;;;;;;;5026270;28;20438;-78
2024/01/04 09:25:17;;;;;;;9.83;6.10;;;;;;;;;;5026338;28;20767;-81
2024/01/04 09:27:43;;;;;;;11.23;6.53;;;;;;;;;;5026674;28;20473;-80
2024/01/04 09:30:10;;;;;;;10.97;6.77;;;;;;;;;;5010439;28;20944;-74
2024/01/04 09:32:37;;;;;;;10.03;6.37;;;;;;;;;;5026814;28;20473;-74
2024/01/04 09:35:05;;;;;;;12.23;6.40;;;;;;;;;;5010266;28;20522;-74
2024/01/04 09:37:32;;;;;;;11.40;6.43;;;;;;;;;;5027632;28;20480;-75
2024/01/04 09:39:59;;;;;;;11.87;6.57;;;;;;;;;;5026844;28;20438;-75
2024/01/04 09:42:26;;;;;;;13.03;7.80;;;;;;;;;;5025813;28;20436;-81
2024/01/04 09:44:53;;;;;;;14.90;8.20;;;;;;;;;;5027213;28;20900;-84
2024/01/04 09:47:21;;;;;;;36.20;24.63;;;;;;;;;;5026415;28;20783;-79
2024/01/04 09:49:48;;;;;;;17.93;11.27;;;;;;;;;;4982657;28;20954;-84
2024/01/04 09:52:15;;;;;;;15.23;7.90;;;;;;;;;;5010002;28;20565;-76
2024/01/04 09:54:59;;;;;;;36.70;18.90;;;;;;;;;;5012636;28;20425;-83
2024/01/04 09:57:26;;;;;;;15.77;8.73;;;;;;;;;;5009930;28;20529;-79
2024/01/04 10:00:10;;;;;;;12.73;8.20;;;;;;;;;;5011760;28;20418;-83
2024/01/04 10:02:44;;;;;;;17.00;8.53;;;;;;;;;;4993033;28;20422;-77
2024/01/04 10:05:15;;;;;;;13.57;7.70;;;;;;;;;;5025776;28;20776;-81
2024/01/04 10:08:03;;;;;;;14.60;6.70;;;;;;;;;;5009597;28;20462;-77
2024/01/04 10:10:30;;;;;;;12.10;6.87;;;;;;;;;;5034702;28;20441;-76
2024/01/04 10:12:57;;;;;;;13.67;7.60;;;;;;;;;;5012559;28;20467;-79
2024/01/04 10:15:24;;;;;;;15.70;8.13;;;;;;;;;;5029395;28;20460;-76
2024/01/04 10:17:51;;;;;;;15.10;8.73;;;;;;;;;;5028358;28;20529;-83
2024/01/04 10:20:19;;;;;;;16.73;8.40;;;;;;;;;;5029201;28;20432;-75
2024/01/04 10:22:46;;;;;;;20.17;9.73;;;;;;;;;;5030088;28;20920;-80
2024/01/04 10:25:18;;;;;;;14.73;8.37;;;;;;;;;;5032939;28;20430;-76
2024/01/04 10:27:56;;;;;;;16.93;8.47;;;;;;;;;;5009913;28;20473;-73
2024/01/04 10:30:23;;;;;;;15.27;8.17;;;;;;;;;;5025271;28;20426;-75
2024/01/04 10:32:52;;;;;;;18.70;8.70;;;;;;;;;;5025908;28;20474;-73
2024/01/04 10:35:29;;;;;;;15.53;8.13;;;;;;;;;;4992410;28;20450;-75
2024/01/04 10:38:00;;;;;;;22.17;9.93;;;;;;;;;;4993684;28;20488;-80
2024/01/04 10:40:27;;;;;;;43.37;16.10;;;;;;;;;;5024897;28;20466;-79
2024/01/04 10:42:58;;;;;;;24.53;12.10;;;;;;;;;;4993779;28;20532;-76
2024/01/04 10:45:27;;;;;;;15.57;8.77;;;;;;;;;;5024954;28;20442;-76
2024/01/04 10:47:55;;;;;;;15.60;7.77;;;;;;;;;;4992775;28;20434;-78
2024/01/04 10:50:24;;;;;;;13.93;7.53;;;;;;;;;;4997706;28;20457;-74
2024/01/04 10:52:53;;;;;;;11.37;6.13;;;;;;;;;;5025912;28;20462;-74
2024/01/04 10:55:20;;;;;;;13.30;6.00;;;;;;;;;;5024457;28;20422;-72
2024/01/04 10:57:50;;;;;;;13.40;6.87;;;;;;;;;;5007626;28;20844;-71
2024/01/04 11:00:17;;;;;;;13.73;7.50;;;;;;;;;;5025633;28;20509;-75
2024/01/04 11:02:44;;;;;;;14.53;8.30;;;;;;;;;;5025633;28;20897;-74
2024/01/04 11:05:12;;;;;;;12.73;7.30;;;;;;;;;;5024964;28;20525;-72
2024/01/04 11:07:39;;;;;;;12.87;6.90;;;;;;;;;;5023847;28;20461;-72
2024/01/04 11:10:06;;;;;;;12.57;7.13;;;;;;;;;;5007502;28;20496;-70
2024/01/04 11:12:33;;;;;;;11.60;6.93;;;;;;;;;;5025477;28;20956;-71
2024/01/04 11:15:00;;;;;;;13.93;7.33;;;;;;;;;;5007767;28;20438;-70
2024/01/04 11:17:45;;;;;;;12.40;7.47;;;;;;;;;;5024035;28;20441;-70
2024/01/04 11:20:42;;;;;;;16.67;9.03;;;;;;;;;;5007582;28;20422;-71
2024/01/04 11:23:28;;;;;;;12.23;6.50;;;;;;;;;;5009949;28;20438;-70
2024/01/04 11:26:14;;;;;;;11.27;6.67;;;;;;;;;;5023675;28;20546;-71
2024/01/04 11:28:41;;;;;;;14.17;6.80;;;;;;;;;;5025068;28;20473;-72
2024/01/04 11:31:08;;;;;;;12.30;6.67;;;;;;;;;;5006898;28;20472;-72
2024/01/04 11:33:39;;;;;;;11.30;6.50;;;;;;;;;;5023849;28;20814;-71
2024/01/04 11:36:07;;;;;;;12.17;6.37;;;;;;;;;;5007539;28;20968;-70
2024/01/04 11:38:34;;;;;;;13.10;6.83;;;;;;;;;;5023300;28;20516;-71
2024/01/04 11:41:01;;;;;;;8.60;5.10;;;;;;;;;;5023498;28;20797;-72
2024/01/04 11:43:34;;;;;;;11.17;6.17;;;;;;;;;;5023303;28;20423;-71
2024/01/04 11:46:23;;;;;;;13.17;6.73;;;;;;;;;;5024847;28;20783;-71
2024/01/04 11:49:04;;;;;;;16.33;8.17;;;;;;;;;;5014061;28;20489;-73
2024/01/04 11:51:32;;;;;;;16.10;8.40;;;;;;;;;;5043842;28;20912;-74
2024/01/04 11:53:59;;;;;;;13.20;7.77;;;;;;;;;;5026958;28;20828;-73
2024/01/04 11:56:26;;;;;;;25.23;9.60;;;;;;;;;;5027145;28;21052;-76
2024/01/04 11:59:04;;;;;;;15.07;7.80;;;;;;;;;;5027054;28;20429;-75
2024/01/04 12:01:31;;;;;;;28.63;11.23;;;;;;;;;;5027017;28;20425;-76
2024/01/04 12:04:05;;;;;;;38.50;12.53;;;;;;;;;;5043541;28;20421;-75
2024/01/04 12:06:32;;;;;;;22.43;8.23;;;;;;;;;;5026866;28;20437;-75
2024/01/04 12:09:02;;;;;;;70.33;20.53;;;;;;;;;;5026877;28;20456;-72
2024/01/04 12:11:30;;;;;;;12.60;6.87;;;;;;;;;;5043374;28;20726;-77
2024/01/04 12:13:57;;;;;;;78.83;23.20;;;;;;;;;;5043752;28;20614;-70
2024/01/04 12:16:24;;;;;;;19.03;8.30;;;;;;;;;;5043295;28;21567;-72
2024/01/04 12:18:50;;;;;;;87.50;21.20;;;;;;;;;;5044565;28;20429;-71
2024/01/04 12:21:18;;;;;;;48.07;16.27;;;;;;;;;;5043192;28;20793;-73
2024/01/04 12:23:45;;;;;;;14.27;7.53;;;;;;;;;;5027320;28;20471;-75
2024/01/04 12:26:11;;;;;;;15.03;7.57;;;;;;;;;;5043346;28;20449;-73
2024/01/04 12:28:39;;;;;;;12.83;7.70;;;;;;;;;;5043507;28;20436;-72
2024/01/04 12:31:07;;;;;;;10.67;6.13;;;;;;;;;;5026754;28;20428;-73
2024/01/04 12:33:34;;;;;;;13.57;6.60;;;;;;;;;;5042878;28;21203;-73
2024/01/04 12:36:02;;;;;;;11.57;6.43;;;;;;;;;;5043453;28;20425;-72
2024/01/04 12:38:29;;;;;;;18.00;8.87;;;;;;;;;;5026669;28;20768;-77
2024/01/04 12:40:55;;;;;;;14.50;8.30;;;;;;;;;;5044455;28;20448;-77
2024/01/04 12:43:24;;;;;;;14.40;8.37;;;;;;;;;;5030475;28;20436;-79
2024/01/04 12:46:08;;;;;;;25.87;11.13;;;;;;;;;;5048455;28;20516;-77
2024/01/04 12:48:35;;;;;;;52.40;18.23;;;;;;;;;;5047279;28;20519;-74
2024/01/04 12:51:14;;;;;;;13.03;7.30;;;;;;;;;;5035409;28;20951;-74
2024/01/04 12:53:44;;;;;;;35.33;12.17;;;;;;;;;;5030982;28;20976;-74
2024/01/04 12:56:13;;;;;;;15.17;8.20;;;;;;;;;;5014419;28;20470;-75
2024/01/04 12:58:41;;;;;;;30.47;11.43;;;;;;;;;;5046978;28;20912;-76
2024/01/04 13:01:08;;;;;;;21.00;10.83;;;;;;;;;;5013903;28;20776;-76
2024/01/04 13:03:36;;;;;;;41.40;13.47;;;;;;;;;;5046626;28;20429;-73
2024/01/04 13:06:04;;;;;;;30.20;10.83;;;;;;;;;;5030185;28;20567;-78
2024/01/04 13:08:31;;;;;;;17.00;8.27;;;;;;;;;;5030329;28;20939;-76
2024/01/04 13:10:58;;;;;;;73.47;22.83;;;;;;;;;;5030627;28;20927;-77
2024/01/04 13:13:27;;;;;;;17.27;8.40;;;;;;;;;;5030703;28;21148;-76
2024/01/04 13:16:00;;;;;;;15.60;7.30;;;;;;;;;;5031692;28;20441;-80
2024/01/04 13:18:27;;;;;;;23.13;9.70;;;;;;;;;;5030782;28;20534;-77
2024/01/04 13:20:56;;;;;;;13.90;7.37;;;;;;;;;;5047738;28;20452;-77
2024/01/04 13:23:23;;;;;;;11.47;5.57;;;;;;;;;;5048725;28;20432;-78
2024/01/04 13:26:07;;;;;;;17.93;6.53;;;;;;;;;;5047008;28;20437;-70
2024/01/04 13:28:34;;;;;;;12.97;6.90;;;;;;;;;;5029458;28;20469;-69
2024/01/04 13:31:02;;;;;;;15.83;8.73;;;;;;;;;;5029387;28;20563;-71
2024/01/04 13:33:30;;;;;;;15.63;8.00;;;;;;;;;;5029055;28;21105;-68
2024/01/04 13:36:00;;;;;;;13.53;7.53;;;;;;;;;;5029187;28;20909;-69
2024/01/04 13:38:27;;;;;;;27.33;11.67;;;;;;;;;;5045766;28;20428;-69
2024/01/04 13:40:54;;;;;;;31.17;16.60;;;;;;;;;;5013299;28;20515;-69
2024/01/04 13:43:22;;;;;;;23.83;11.77;;;;;;;;;;5013001;28;20487;-71
2024/01/04 13:46:07;;;;;;;17.93;9.87;;;;;;;;;;5032795;28;20514;-69
2024/01/04 13:48:33;;;;;;;10.93;6.23;;;;;;;;;;5029546;28;20432;-69
2024/01/04 13:51:01;;;;;;;12.67;7.47;;;;;;;;;;5018910;28;20453;-69
2024/01/04 13:53:28;;;;;;;15.13;7.70;;;;;;;;;;5044190;28;20476;-69
2024/01/04 13:55:54;;;;;;;15.43;8.30;;;;;;;;;;5046629;28;20433;-69
2024/01/04 13:58:38;;;;;;;19.90;11.67;;;;;;;;;;5031782;28;20448;-69
2024/01/04 14:01:06;;;;;;;36.10;19.73;;;;;;;;;;5046741;28;20432;-69
2024/01/04 14:03:50;;;;;;;16.33;7.23;;;;;;;;;;5045740;28;21198;-77
2024/01/04 14:06:18;;;;;;;21.40;10.67;;;;;;;;;;5029424;28;20456;-76
2024/01/04 14:08:52;;;;;;;30.57;14.83;;;;;;;;;;5045413;28;20457;-76
2024/01/04 14:11:19;;;;;;;79.90;32.80;;;;;;;;;;5045509;28;20892;-79
2024/01/04 14:13:47;;;;;;;40.17;18.43;;;;;;;;;;5045043;28;20473;-73
2024/01/04 14:16:15;;;;;;;14.97;6.80;;;;;;;;;;5045091;28;20507;-72
2024/01/04 14:18:41;;;;;;;20.63;10.10;;;;;;;;;;5028368;28;20429;-73
2024/01/04 14:21:08;;;;;;;27.57;13.30;;;;;;;;;;5046436;28;20888;-73
2024/01/04 14:23:35;;;;;;;11.13;5.83;;;;;;;;;;5045142;28;20908;-71
2024/01/04 14:26:02;;;;;;;13.70;6.83;;;;;;;;;;5045122;28;20453;-71
2024/01/04 14:28:29;;;;;;;16.47;9.10;;;;;;;;;;5045689;28;20939;-71
2024/01/04 14:30:56;;;;;;;20.03;9.80;;;;;;;;;;5044773;28;20436;-70
2024/01/04 14:33:23;;;;;;;13.83;8.00;;;;;;;;;;5044302;28;20488;-70
2024/01/04 14:36:02;;;;;;;15.10;8.93;;;;;;;;;;5044546;28;20916;-71
2024/01/04 14:38:28;;;;;;;21.37;11.17;;;;;;;;;;5044434;28;20433;-71
2024/01/04 14:40:56;;;;;;;14.03;8.23;;;;;;;;;;5045415;28;20420;-71
2024/01/04 14:43:22;;;;;;;20.87;11.50;;;;;;;;;;5044441;28;20935;-71
2024/01/04 14:45:49;;;;;;;14.77;9.47;;;;;;;;;;5011393;28;20524;-71
2024/01/04 14:48:16;;;;;;;16.50;10.13;;;;;;;;;;5030375;28;20876;-71
2024/01/04 14:50:43;;;;;;;10.60;6.03;;;;;;;;;;5005121;28;20524;-70
2024/01/04 14:53:10;;;;;;;8.77;4.87;;;;;;;;;;5034626;28;20596;-70
2024/01/04 14:55:37;;;;;;;16.93;9.93;;;;;;;;;;5035563;28;20457;-71
2024/01/04 14:58:04;;;;;;;16.80;8.83;;;;;;;;;;5017309;28;20437;-70
2024/01/04 15:00:32;;;;;;;12.40;7.27;;;;;;;;;;5034626;28;20430;-70
2024/01/04 15:03:16;;;;;;;17.93;10.57;;;;;;;;;;5033243;28;20457;-70
2024/01/04 15:05:43;;;;;;;22.03;11.13;;;;;;;;;;5034185;28;20419;-71
2024/01/04 15:08:10;;;;;;;19.60;10.67;;;;;;;;;;5034197;28;20960;-70
2024/01/04 15:10:37;;;;;;;21.33;10.93;;;;;;;;;;5033645;28;20434;-71
2024/01/04 15:13:05;;;;;;;41.67;23.30;;;;;;;;;;5034634;28;20465;-71
2024/01/04 15:15:32;;;;;;;16.47;9.40;;;;;;;;;;5033157;28;20436;-71